Liverpool, Illinois
Current Conditions -  °F | °C
As of 4:54 AM on Thursday 23 Oct 2014 (Local Time) from KPIA Reporting Station
Clear Clear  
Wind Chill:   Ceiling: Unl
Heat Index:   Visibility: 10mi
Dew Point:   Wind: 6mph
Humidity: 73%   Direction: 160°SSE
Pressure: 30.2"   Gusts: NA
Location:  40.39°N, 90°W
Report Text: KPIA 230954Z 16005KT 10SM CLR 07/02 A3020 RMK AO2 SLP227 T00670022 $
Loading
Personal Weather Stations






























Interactive Weather Map
Tropical Storm Tracking
New forecast layout! Learn more

10-Day Weather Forecast

Advertisements
Track Severe Weather on mobile